Kezdőlap
METAR-TAF:

METAR-TAF

Repülőterek :

N’Djamena, Csád

földrajzi szélesség: 12-08N, földrajzi hosszúság: 015-02E, magasság: 295 m

Jelenlegi meteorológiai megfigyelések

A jelentés 53 perccel ezelõtt készült, 00:00 UTC
Déli szél 5 kt
Hőmérséklet 32°C
Páratartalom 32%
Légköri nyomás 1005 hPa
Látótávolság 10 km, vagy több
felhőtlen 1500 m magasságban, és nincs gomolyfelhõ

METAR: FTTJ 240000Z 19005KT CAVOK 32/13 Q1005 NOSIG

Idő: 01:53 (00:53 UTC)

Előrejelzés

A jelentés 1 órával és 53 perccel ezelõtt készült, 23:00 UTC
Az előrejelzés 24-én 00 óra UTC és 25-én 06 óra UTC között érvényes
Nyugat-délnyugati szél 6 kt
Látótávolság: 8000 m
Valószínűség 30% :
24-én 14 óra UTC és 24-én 18 óra UTC között ideiglenes
zivatar

TAF: FTTJ 232300Z 2400/2506 24006KT 8000 NSC PROB30 TEMPO 2414/2418 TS

Meteorológiai megfigyelések és előrejelzések több, mint 4000 repülőtéren (METAR és TAF jelentéseket).

A térképen piros és sárga pontok jelzik az elérhető meteorológiai állomásokat.

Mozgassa az egeret a pont fölött, hogy megjelenjen az állomás neve.

Azután kattintson az időjárási megfigyelések és előrejelzések megtekintéséhez.

A térkép megváltoztatása: kattintson a fekete keresztel jelölt zöld gombra ráközelítéshez, a vonallal jelölt zöld gombra távolításhoz, vagy a zöld nyilakra a szomszédos térképek eléréséhez.


METAR-TAF: